createdAt,value
2022-08-18T00:01:34.676Z,1.65
2022-08-18T00:04:35.817Z,1.77
2022-08-18T00:07:05.004Z,1.45
2022-08-18T00:09:34.367Z,1.38
2022-08-18T00:12:02.945Z,1.80
2022-08-18T00:14:30.937Z,1.58
2022-08-18T00:16:58.608Z,1.50
2022-08-18T00:19:45.508Z,1.63
2022-08-18T00:22:15.985Z,1.27
2022-08-18T00:24:47.935Z,1.33
2022-08-18T00:27:21.646Z,1.48
2022-08-18T00:29:50.752Z,1.67
2022-08-18T00:32:20.164Z,1.63
2022-08-18T00:34:47.871Z,1.45
2022-08-18T00:37:15.689Z,1.30
2022-08-18T00:39:46.568Z,1.33
2022-08-18T00:42:26.958Z,1.67
2022-08-18T00:44:58.293Z,1.88
2022-08-18T00:47:42.030Z,1.60
2022-08-18T00:50:14.809Z,1.88
2022-08-18T00:52:44.396Z,1.77
2022-08-18T00:55:13.416Z,1.70
2022-08-18T00:57:42.695Z,1.42
2022-08-18T01:00:13.494Z,1.77
2022-08-18T01:02:43.613Z,1.90
2022-08-18T01:05:15.220Z,1.58
2022-08-18T01:07:45.633Z,1.90
2022-08-18T01:10:17.078Z,1.73
2022-08-18T01:12:46.826Z,1.67
2022-08-18T01:15:27.800Z,1.33
2022-08-18T01:18:08.125Z,2.00
2022-08-18T01:20:49.889Z,1.70
2022-08-18T01:23:20.594Z,1.77
2022-08-18T01:25:58.757Z,1.60
2022-08-18T01:28:26.716Z,1.58
2022-08-18T01:30:58.137Z,1.60
2022-08-18T01:33:32.388Z,1.73
2022-08-18T01:36:02.703Z,1.23
2022-08-18T01:38:32.384Z,1.60
2022-08-18T01:41:27.154Z,1.65
2022-08-18T01:43:48.219Z,1.38
2022-08-18T01:46:19.945Z,1.83
2022-08-18T01:48:49.270Z,1.55
2022-08-18T01:51:17.914Z,1.85
2022-08-18T01:53:48.530Z,1.70
2022-08-18T01:56:17.687Z,1.75
2022-08-18T01:58:47.702Z,1.30
2022-08-18T02:01:15.977Z,1.40
2022-08-18T02:03:45.506Z,1.50
2022-08-18T02:06:14.971Z,1.17
2022-08-18T02:08:42.836Z,1.48
2022-08-18T02:11:15.558Z,1.58
2022-08-18T02:13:43.611Z,1.30
2022-08-18T02:16:11.270Z,1.20
2022-08-18T02:18:48.497Z,1.58
2022-08-18T02:21:19.212Z,1.42
2022-08-18T02:23:53.277Z,1.40
2022-08-18T02:26:24.252Z,1.30
2022-08-18T02:28:52.308Z,1.42
2022-08-18T02:31:21.997Z,1.20
2022-08-18T02:33:52.569Z,1.27
2022-08-18T02:39:06.295Z,1.35
2022-08-18T02:41:36.478Z,1.30
2022-08-18T02:44:04.979Z,1.33
2022-08-18T02:46:32.685Z,1.55
2022-08-18T02:49:00.511Z,1.48
2022-08-18T02:51:28.707Z,1.80
2022-08-18T02:53:59.137Z,1.60
2022-08-18T02:56:40.327Z,1.77
2022-08-18T02:59:12.549Z,1.65
2022-08-18T03:01:41.100Z,1.50
2022-08-18T03:04:10.121Z,1.98
2022-08-18T03:06:39.085Z,1.50
2022-08-18T03:09:07.795Z,2.00
2022-08-18T03:11:36.141Z,1.60
2022-08-18T03:14:05.265Z,1.55
2022-08-18T03:16:35.139Z,2.00
2022-08-18T03:19:03.187Z,1.60
2022-08-18T03:21:32.238Z,1.55
2022-08-18T03:24:00.930Z,1.83
2022-08-18T03:26:30.518Z,1.75
2022-08-18T03:28:59.867Z,2.40
2022-08-18T03:31:28.751Z,2.08
2022-08-18T03:33:59.282Z,2.35
2022-08-18T03:36:28.598Z,2.15
2022-08-18T03:38:56.923Z,1.73
2022-08-18T03:41:57.436Z,1.70
2022-08-18T03:44:15.714Z,2.20
2022-08-18T03:46:44.190Z,1.65
2022-08-18T03:49:13.362Z,1.90
2022-08-18T03:51:43.947Z,1.60
2022-08-18T03:54:13.233Z,2.10
2022-08-18T03:56:42.163Z,2.42
2022-08-18T03:59:12.265Z,2.08
2022-08-18T04:01:41.527Z,2.00
2022-08-18T04:04:10.466Z,1.77
2022-08-18T04:06:42.633Z,1.70
2022-08-18T04:09:11.988Z,1.52
2022-08-18T04:11:43.020Z,1.50
2022-08-18T04:14:11.957Z,1.73
2022-08-18T04:16:40.481Z,1.90
2022-08-18T04:19:08.882Z,1.80
2022-08-18T04:21:38.054Z,1.88
2022-08-18T04:24:08.173Z,1.85
2022-08-18T04:26:36.913Z,1.83
2022-08-18T04:29:04.783Z,2.00
2022-08-18T04:31:32.463Z,1.67
2022-08-18T04:34:01.198Z,1.90
2022-08-18T04:36:29.939Z,1.60
2022-08-18T04:38:58.464Z,1.60
2022-08-18T04:41:28.199Z,1.98
2022-08-18T04:43:55.999Z,1.50
2022-08-18T04:46:24.505Z,1.58
2022-08-18T04:48:52.929Z,2.13
2022-08-18T04:52:30.771Z,1.80
2022-08-18T04:54:08.697Z,1.48
2022-08-18T04:56:39.925Z,1.70
2022-08-18T04:59:09.087Z,1.70
2022-08-18T05:01:38.084Z,1.88
2022-08-18T05:04:06.457Z,1.63
2022-08-18T05:06:34.355Z,2.05
2022-08-18T05:09:03.172Z,1.60
2022-08-18T05:11:33.241Z,1.92
2022-08-18T05:14:02.949Z,1.88
2022-08-18T05:16:36.424Z,2.20
2022-08-18T05:19:17.206Z,2.10
2022-08-18T05:21:50.462Z,1.92
2022-08-18T05:24:18.989Z,1.73
2022-08-18T05:26:47.033Z,2.00
2022-08-18T05:29:17.810Z,2.30
2022-08-18T05:31:47.024Z,1.73
2022-08-18T05:34:14.928Z,1.83
2022-08-18T05:36:52.894Z,2.30
2022-08-18T05:39:23.434Z,2.80
2022-08-18T05:41:52.830Z,2.15
2022-08-18T05:44:25.615Z,2.40
2022-08-18T05:46:54.784Z,2.15
2022-08-18T05:49:23.664Z,2.97
2022-08-18T05:51:52.959Z,2.63
2022-08-18T05:54:30.820Z,2.15
2022-08-18T05:56:59.714Z,1.95
2022-08-18T05:59:32.501Z,2.30
2022-08-18T06:02:03.213Z,2.38
2022-08-18T06:04:36.311Z,2.20
2022-08-18T06:07:05.545Z,2.60
2022-08-18T06:09:35.582Z,2.15
2022-08-18T06:12:06.017Z,2.85
2022-08-18T06:14:36.999Z,2.47
2022-08-18T06:17:09.297Z,2.97
2022-08-18T06:19:43.333Z,2.60
2022-08-18T06:22:18.696Z,2.22
2022-08-18T06:24:49.975Z,2.88
2022-08-18T06:27:23.642Z,3.47
2022-08-18T06:30:04.454Z,2.80
2022-08-18T06:32:41.642Z,3.85
2022-08-18T06:35:15.172Z,3.55
2022-08-18T06:38:00.517Z,3.67
2022-08-18T06:40:28.199Z,3.78
2022-08-18T06:42:55.880Z,3.67
2022-08-18T06:45:33.813Z,3.63
2022-08-18T06:48:15.316Z,3.35
2022-08-18T06:50:53.550Z,4.07
2022-08-18T06:53:50.064Z,3.65
2022-08-18T06:56:26.340Z,3.22
2022-08-18T06:58:55.207Z,3.55
2022-08-18T07:01:25.327Z,3.78
2022-08-18T07:03:54.806Z,3.63
2022-08-18T07:06:26.352Z,3.83
2022-08-18T07:08:54.774Z,3.47
2022-08-18T07:11:24.150Z,3.38
2022-08-18T07:14:09.465Z,3.78
2022-08-18T07:16:59.270Z,3.20
2022-08-18T07:19:30.155Z,3.75
2022-08-18T07:22:02.386Z,4.20
2022-08-18T07:24:31.474Z,3.70
2022-08-18T07:27:00.482Z,3.55
2022-08-18T07:29:28.584Z,3.35
2022-08-18T07:31:58.962Z,3.70
2022-08-18T07:34:29.460Z,3.60
2022-08-18T07:37:00.727Z,3.95
2022-08-18T07:39:32.401Z,3.95
2022-08-18T07:42:04.405Z,3.92
2022-08-18T07:44:41.660Z,3.40
2022-08-18T07:47:14.590Z,3.55
2022-08-18T07:50:13.598Z,3.03
2022-08-18T07:52:44.562Z,3.75
2022-08-18T07:55:22.201Z,3.70
2022-08-18T07:57:54.202Z,3.90
2022-08-18T08:00:54.811Z,3.22
2022-08-18T08:03:23.179Z,3.90
2022-08-18T08:05:58.569Z,3.33
2022-08-18T08:08:29.219Z,3.47
2022-08-18T08:11:03.147Z,3.00
2022-08-18T08:13:54.157Z,3.00
2022-08-18T08:16:27.042Z,3.35
2022-08-18T08:19:01.398Z,3.10
2022-08-18T08:21:32.060Z,3.30
2022-08-18T08:24:06.222Z,3.50
2022-08-18T08:26:42.577Z,3.63
2022-08-18T08:29:15.498Z,3.35
2022-08-18T08:31:47.003Z,3.45
2022-08-18T08:34:26.779Z,3.03
2022-08-18T08:36:58.760Z,3.40
2022-08-18T08:39:28.654Z,3.50
2022-08-18T08:42:29.122Z,3.58
2022-08-18T08:44:59.105Z,3.25
2022-08-18T08:47:32.377Z,3.47
2022-08-18T08:50:03.431Z,3.60
2022-08-18T08:52:33.650Z,3.72
2022-08-18T08:55:04.070Z,3.40
2022-08-18T08:57:35.622Z,3.10
2022-08-18T09:00:04.263Z,3.30
2022-08-18T09:02:47.974Z,2.92
2022-08-18T09:05:19.800Z,3.13
2022-08-18T09:07:58.921Z,3.05
2022-08-18T09:10:35.847Z,2.92
2022-08-18T09:13:12.483Z,2.88
2022-08-18T09:15:45.882Z,3.20
2022-08-18T09:18:19.275Z,3.45
2022-08-18T09:20:52.551Z,3.08
2022-08-18T09:23:22.201Z,3.60
2022-08-18T09:25:51.872Z,3.53
2022-08-18T09:28:20.659Z,2.83
2022-08-18T09:30:51.920Z,2.83
2022-08-18T09:33:21.612Z,2.75
2022-08-18T09:36:00.169Z,3.20
2022-08-18T09:38:40.031Z,3.00
2022-08-18T09:41:20.272Z,3.13
2022-08-18T09:43:55.994Z,3.13
2022-08-18T09:46:38.495Z,2.53
2022-08-18T09:49:21.697Z,3.17
2022-08-18T09:51:52.944Z,2.90
2022-08-18T09:54:25.109Z,3.45
2022-08-18T09:56:58.386Z,3.05
2022-08-18T09:59:37.632Z,3.10
2022-08-18T10:02:11.599Z,3.30
2022-08-18T10:04:51.249Z,3.03
2022-08-18T10:07:22.207Z,3.15
2022-08-18T10:09:53.729Z,2.95
2022-08-18T10:12:31.661Z,3.13
2022-08-18T10:15:06.825Z,2.92
2022-08-18T10:17:42.228Z,3.00
2022-08-18T10:20:23.957Z,2.83
2022-08-18T10:22:56.405Z,2.80
2022-08-18T10:25:35.801Z,3.05
2022-08-18T10:28:05.854Z,2.72
2022-08-18T10:30:57.318Z,3.08
2022-08-18T10:33:40.970Z,3.08
2022-08-18T10:36:11.111Z,3.08
2022-08-18T10:38:49.152Z,3.10
2022-08-18T10:41:22.685Z,3.00
2022-08-18T10:43:57.278Z,2.85
2022-08-18T10:46:30.618Z,2.63
2022-08-18T10:49:04.449Z,2.45
2022-08-18T10:52:00.452Z,3.05
2022-08-18T10:54:32.783Z,3.40
2022-08-18T10:57:07.983Z,3.05
2022-08-18T10:59:50.500Z,3.20
2022-08-18T11:02:27.881Z,2.75
2022-08-18T11:04:59.043Z,2.40
2022-08-18T11:07:29.179Z,2.67
2022-08-18T11:10:30.124Z,2.67
2022-08-18T11:13:00.362Z,3.30
2022-08-18T11:15:42.531Z,3.00
2022-08-18T11:18:16.565Z,3.15
2022-08-18T11:20:47.506Z,2.92
2022-08-18T11:23:17.437Z,3.03
2022-08-18T11:25:46.470Z,3.10
2022-08-18T11:28:18.260Z,3.33
2022-08-18T11:30:47.190Z,3.83
2022-08-18T11:33:23.143Z,3.05
2022-08-18T11:35:53.904Z,3.60
2022-08-18T11:38:23.513Z,3.03
2022-08-18T11:41:13.124Z,3.38
2022-08-18T11:43:43.035Z,4.03
2022-08-18T11:46:16.387Z,3.45
2022-08-18T11:48:53.394Z,3.65
2022-08-18T11:51:24.879Z,3.55
2022-08-18T11:53:58.358Z,3.35
2022-08-18T11:59:53.485Z,3.25
2022-08-18T12:02:20.308Z,4.05
2022-08-18T12:04:52.529Z,3.58
2022-08-18T12:07:27.691Z,3.42
2022-08-18T12:10:17.074Z,3.42
2022-08-18T12:12:50.024Z,3.58
2022-08-18T12:15:29.669Z,3.45
2022-08-18T12:18:18.932Z,3.28
2022-08-18T12:20:55.942Z,3.47
2022-08-18T12:23:25.180Z,3.28
2022-08-18T12:25:52.876Z,3.00
2022-08-18T12:28:22.690Z,3.03
2022-08-18T12:30:57.412Z,3.25
2022-08-18T12:33:34.346Z,2.80
2022-08-18T12:36:31.928Z,2.70
2022-08-18T12:38:59.605Z,3.20
2022-08-18T12:41:27.316Z,2.72
2022-08-18T12:43:59.928Z,3.00
2022-08-18T12:46:27.845Z,3.42
2022-08-18T12:48:55.834Z,3.05
2022-08-18T12:51:24.871Z,3.08
2022-08-18T12:54:00.070Z,2.85
2022-08-18T12:56:30.085Z,2.88
2022-08-18T12:59:00.273Z,3.03
2022-08-18T13:01:32.656Z,2.90
2022-08-18T13:06:59.208Z,2.75
2022-08-18T13:09:34.240Z,2.63
2022-08-18T13:12:14.828Z,3.13
2022-08-18T13:14:44.737Z,2.70
2022-08-18T13:17:33.087Z,2.42
2022-08-18T13:20:01.072Z,2.50
2022-08-18T13:22:31.890Z,2.40
2022-08-18T13:25:00.224Z,3.22
2022-08-18T13:27:45.798Z,2.70
2022-08-18T13:30:30.946Z,3.35
2022-08-18T13:33:02.518Z,2.65
2022-08-18T13:35:37.884Z,2.45
2022-08-18T13:38:14.115Z,2.70
2022-08-18T13:40:45.638Z,2.90
2022-08-18T13:43:15.293Z,2.35
2022-08-18T13:45:53.279Z,2.75
2022-08-18T13:48:23.939Z,2.63
2022-08-18T13:50:52.862Z,2.40
2022-08-18T13:53:21.697Z,2.55
2022-08-18T13:55:49.538Z,3.00
2022-08-18T13:58:20.789Z,2.78
2022-08-18T14:00:53.765Z,2.90
2022-08-18T14:03:42.846Z,3.03
2022-08-18T14:06:13.272Z,2.63
2022-08-18T14:08:41.898Z,2.90
2022-08-18T14:11:10.650Z,2.80
2022-08-18T14:13:43.904Z,2.63
2022-08-18T14:16:18.664Z,2.45
2022-08-18T14:19:09.777Z,3.30
2022-08-18T14:21:50.126Z,3.20
2022-08-18T14:24:33.102Z,3.10
2022-08-18T14:27:04.580Z,3.60
2022-08-18T14:29:46.077Z,3.35
2022-08-18T14:32:28.582Z,2.90
2022-08-18T14:35:00.401Z,3.47
2022-08-18T14:37:29.074Z,3.63
2022-08-18T14:39:56.912Z,3.78
2022-08-18T14:42:41.194Z,2.88
2022-08-18T14:45:17.914Z,3.67
2022-08-18T14:48:00.981Z,4.07
2022-08-18T14:50:29.261Z,3.90
2022-08-18T14:52:58.239Z,3.60
2022-08-18T14:55:26.925Z,3.65
2022-08-18T14:57:54.773Z,3.85
2022-08-18T15:00:26.371Z,3.70
2022-08-18T15:02:59.695Z,3.92
2022-08-18T15:05:33.814Z,3.88
2022-08-18T15:08:03.620Z,3.58
2022-08-18T15:10:31.515Z,4.25
2022-08-18T15:13:00.391Z,4.15
2022-08-18T15:15:28.373Z,4.20
2022-08-18T15:18:16.017Z,3.92
2022-08-18T15:21:01.705Z,3.63
2022-08-18T15:23:38.623Z,3.70
2022-08-18T15:26:11.390Z,3.40
2022-08-18T15:28:41.550Z,3.40
2022-08-18T15:34:01.115Z,3.72
2022-08-18T15:36:32.631Z,3.58
2022-08-18T15:39:00.912Z,3.10
2022-08-18T15:41:31.249Z,3.60
2022-08-18T15:43:59.070Z,3.45
2022-08-18T15:46:26.758Z,3.63
2022-08-18T15:48:55.563Z,4.40
2022-08-18T15:51:23.405Z,3.22
2022-08-18T15:53:56.394Z,3.20
2022-08-18T15:56:25.950Z,3.58
2022-08-18T15:58:53.937Z,4.10
2022-08-18T16:01:32.232Z,3.17
2022-08-18T16:04:02.309Z,3.28
2022-08-18T16:06:32.307Z,3.90
2022-08-18T16:09:02.239Z,3.72
2022-08-18T16:11:30.150Z,4.22
2022-08-18T16:13:58.973Z,3.28
2022-08-18T16:16:29.342Z,3.90
2022-08-18T16:19:04.932Z,3.53
2022-08-18T16:21:32.691Z,3.40
2022-08-18T16:24:01.695Z,3.50
2022-08-18T16:26:30.063Z,3.22
2022-08-18T16:29:01.294Z,3.85
2022-08-18T16:31:29.704Z,3.47
2022-08-18T16:33:58.014Z,3.30
2022-08-18T16:36:26.372Z,3.33
2022-08-18T16:38:58.083Z,3.53
2022-08-18T16:41:27.324Z,2.90
2022-08-18T16:43:56.139Z,3.03
2022-08-18T16:46:26.378Z,3.03
2022-08-18T16:48:54.735Z,2.90
2022-08-18T16:51:23.386Z,2.95
2022-08-18T16:53:52.836Z,3.00
2022-08-18T16:56:21.767Z,2.65
2022-08-18T16:59:00.396Z,2.85
2022-08-18T17:01:48.832Z,3.70
2022-08-18T17:04:20.566Z,3.38
2022-08-18T17:06:49.336Z,2.97
2022-08-18T17:09:17.710Z,2.58
2022-08-18T17:11:51.335Z,3.25
2022-08-18T17:14:21.607Z,3.05
2022-08-18T17:16:51.215Z,2.88
2022-08-18T17:19:18.929Z,3.00
2022-08-18T17:21:47.827Z,2.58
2022-08-18T17:24:15.925Z,2.55
2022-08-18T17:26:49.527Z,2.70
2022-08-18T17:29:19.833Z,2.65
2022-08-18T17:31:50.971Z,2.75
2022-08-18T17:34:19.101Z,2.63
2022-08-18T17:36:52.935Z,2.60
2022-08-18T17:39:23.356Z,2.72
2022-08-18T17:42:00.682Z,2.80
2022-08-18T17:44:52.257Z,2.92
2022-08-18T17:47:26.479Z,2.95
2022-08-18T17:50:27.407Z,3.10
2022-08-18T17:52:56.039Z,3.20
2022-08-18T17:55:25.630Z,2.58
2022-08-18T17:57:58.784Z,3.10
2022-08-18T18:00:29.460Z,2.72
2022-08-18T18:02:58.402Z,3.13
2022-08-18T18:05:31.693Z,3.17
2022-08-18T18:08:00.390Z,3.30
2022-08-18T18:10:37.720Z,2.85
2022-08-18T18:13:09.689Z,2.80
2022-08-18T18:15:39.991Z,3.22
2022-08-18T18:18:20.722Z,2.90
2022-08-18T18:21:14.746Z,3.05
2022-08-18T18:23:45.818Z,2.92
2022-08-18T18:26:29.280Z,2.75
2022-08-18T18:29:08.732Z,3.13
2022-08-18T18:31:36.731Z,3.35
2022-08-18T18:34:23.030Z,5.05
2022-08-18T18:36:52.088Z,3.40
2022-08-18T18:39:22.915Z,2.95
2022-08-18T18:42:11.155Z,2.88
2022-08-18T18:44:38.853Z,2.70
2022-08-18T18:47:08.856Z,2.90
2022-08-18T18:49:42.063Z,2.90
2022-08-18T18:52:12.283Z,2.78
2022-08-18T18:54:49.609Z,2.65
2022-08-18T18:57:21.693Z,2.88
2022-08-18T19:02:34.161Z,2.97
2022-08-18T19:05:08.623Z,3.13
2022-08-18T19:07:45.711Z,2.83
2022-08-18T19:10:14.901Z,2.80
2022-08-18T19:12:46.822Z,3.35
2022-08-18T19:15:15.854Z,2.95
2022-08-18T19:17:46.104Z,3.65
2022-08-18T19:20:17.988Z,2.75
2022-08-18T19:22:47.667Z,3.08
2022-08-18T19:25:18.083Z,3.03
2022-08-18T19:27:47.856Z,3.15
2022-08-18T19:30:17.017Z,3.50
2022-08-18T19:32:45.955Z,3.35
2022-08-18T19:35:19.549Z,3.28
2022-08-18T19:37:55.429Z,3.45
2022-08-18T19:40:26.703Z,3.53
2022-08-18T19:42:59.112Z,3.42
2022-08-18T19:45:31.147Z,3.42
2022-08-18T19:48:03.008Z,3.80
2022-08-18T19:50:34.104Z,3.95
2022-08-18T19:53:07.348Z,3.83
2022-08-18T19:55:44.651Z,3.13
2022-08-18T19:58:24.280Z,3.38
2022-08-18T20:00:56.220Z,3.75
2022-08-18T20:03:29.847Z,3.35
2022-08-18T20:06:33.322Z,3.80
2022-08-18T20:09:03.935Z,3.53
2022-08-18T20:11:42.572Z,3.60
2022-08-18T20:14:11.797Z,3.17
2022-08-18T20:16:45.101Z,3.67
2022-08-18T20:19:41.104Z,3.50
2022-08-18T20:22:16.309Z,3.63
2022-08-18T20:24:51.704Z,3.15
2022-08-18T20:27:32.944Z,3.60
2022-08-18T20:30:22.920Z,3.60
2022-08-18T20:33:01.253Z,3.35
2022-08-18T20:35:31.781Z,3.60
2022-08-18T20:38:12.617Z,3.45
2022-08-18T20:40:44.609Z,4.60
2022-08-18T20:43:23.291Z,4.53
2022-08-18T20:45:55.082Z,4.40
2022-08-18T20:48:27.549Z,4.20
2022-08-18T20:51:00.177Z,4.38
2022-08-18T20:53:35.882Z,3.95
2022-08-18T20:56:13.013Z,4.22
2022-08-18T20:59:03.726Z,3.80
2022-08-18T21:01:37.613Z,3.80
2022-08-18T21:04:06.813Z,4.03
2022-08-18T21:06:37.458Z,3.50
2022-08-18T21:09:06.535Z,3.58
2022-08-18T21:11:41.741Z,3.20
2022-08-18T21:14:09.821Z,3.45
2022-08-18T21:16:39.271Z,3.78
2022-08-18T21:19:09.857Z,3.90
2022-08-18T21:21:39.703Z,3.78
2022-08-18T21:24:19.454Z,3.35
2022-08-18T21:26:48.155Z,3.83
2022-08-18T21:29:16.262Z,3.22
2022-08-18T21:31:45.474Z,3.33
2022-08-18T21:34:13.970Z,3.20
2022-08-18T21:36:49.486Z,3.22
2022-08-18T21:39:19.303Z,3.22
2022-08-18T21:41:48.271Z,4.22
2022-08-18T21:44:17.962Z,4.38
2022-08-18T21:46:46.971Z,3.42
2022-08-18T21:49:23.385Z,3.83
2022-08-18T21:51:52.616Z,3.67
2022-08-18T21:54:22.678Z,3.45
2022-08-18T21:57:11.098Z,3.80
2022-08-18T21:59:58.888Z,3.75
2022-08-18T22:02:26.796Z,3.78
2022-08-18T22:04:54.566Z,4.05
2022-08-18T22:07:34.524Z,4.07
2022-08-18T22:10:14.889Z,3.90
2022-08-18T22:13:02.125Z,3.70
2022-08-18T22:15:37.789Z,3.05
2022-08-18T22:18:06.456Z,3.88
2022-08-18T22:20:37.589Z,3.35
2022-08-18T22:23:20.781Z,3.42
2022-08-18T22:25:49.949Z,3.22
2022-08-18T22:28:21.193Z,4.13
2022-08-18T22:30:48.884Z,3.65
2022-08-18T22:33:16.771Z,4.03
2022-08-18T22:35:44.959Z,3.53
2022-08-18T22:38:13.004Z,3.50
2022-08-18T22:40:40.676Z,3.20
2022-08-18T22:43:09.803Z,3.17
2022-08-18T22:45:38.102Z,3.08
2022-08-18T22:48:05.861Z,3.30
2022-08-18T22:50:33.547Z,3.42
2022-08-18T22:53:02.003Z,3.45
2022-08-18T22:55:29.688Z,3.63
2022-08-18T22:57:57.359Z,2.97
2022-08-18T23:00:26.964Z,3.10
2022-08-18T23:02:55.953Z,3.35
2022-08-18T23:05:24.333Z,3.22
2022-08-18T23:07:51.995Z,2.75
2022-08-18T23:10:19.670Z,3.05
2022-08-18T23:12:48.690Z,2.30
2022-08-18T23:15:18.049Z,2.78
2022-08-18T23:17:47.085Z,2.95
2022-08-18T23:20:18.228Z,2.42
2022-08-18T23:22:47.776Z,2.08
2022-08-18T23:25:15.523Z,2.28
2022-08-18T23:27:43.464Z,2.25
2022-08-18T23:30:11.674Z,2.30
2022-08-18T23:32:39.352Z,2.05
2022-08-18T23:35:08.571Z,2.20
2022-08-18T23:37:36.303Z,2.00
2022-08-18T23:40:04.352Z,2.10
2022-08-18T23:42:32.639Z,1.63
2022-08-18T23:45:03.113Z,2.40
2022-08-18T23:47:30.911Z,1.90
2022-08-18T23:49:58.691Z,2.00
2022-08-18T23:52:27.679Z,2.00
2022-08-18T23:54:56.485Z,1.65
2022-08-18T23:57:24.143Z,2.00
2022-08-18T23:59:51.832Z,2.00
